Hovedside
METAR-TAF:

METAR-TAF

Lufthavner :

Göteborg-Landvetter, Sverige

Göteborg-Landvetter lufthavn

breddegrad: 57-40N, lengdegrad: 012-18E, høyde over havet: 169 m

Gjeldene værobservasjon

Denne rapporten ble laget for 11 minutter siden, klokken 22:20 UTC
Vind 7 kt fra Nord-nordøst
Temperatur 13°C
Luftfuktighet 88%
Trykk 1012 hPa
Sikt 10 km eller mer
ingen skyer under 1500 m og ingen bygeskyer

METAR: ESGG 242220Z 02007KT CAVOK 13/11 Q1012

Tid: 00:31 (22:31 UTC)

Varsel

Denne rapporten ble laget for 5 timer og 1 minutter siden, klokken 17:30 UTC
Varsel gyldig fra 24. klokken 18 UTC til 25. klokken 18 UTC
Vind 10 kt fra Nordøst
Sikt 10 km eller mer
ingen skyer under 1500 m og ingen bygeskyer

TAF: ESGG 241730Z 2418/2518 05010KT CAVOK

Værobservasjoner og værvarsel for over 4000 flyplasser (METAR- og TAF-rapporter).

Tilgjengelige stasjoner er representert av de røde og gule prikkene på kartet.

Hold musepekeren over prikken for å se navnet på stasjonen.

Klikk så for å se værobservasjoner og -varsler.

For å forandre kartet kan du klikke på den grønne knappen med svart kryss for å zoome inn, på den grønne knappen med strek for å zoome ut, eller på de grønne pilene for å se tilstøtende kart.


METAR-TAF: